Terminal Aerodrome Forecast
Issued by NWS

Home | Current Version | Previous Version | Text Only | Print | Product List | Glossary On
Versions: 1 2 3 4 5 6 7 8 9 10 11 12 13 14 15
000
FTUS44 KLIX 201700
TAFGPT
TAF
KGPT 201729Z 2018/2118 22005KT P6SM SCT040 SCT060
     FM210100 00000KT P6SM SCT250
     FM211500 18004KT P6SM SCT030 SCT250=

USA.gov is the U.S. government's official web portal to all federal, state and local government web resources and services.